Terminal Aerodrome Forecast
Issued by NWS Pittsburgh, PA

Home | Current Version | Previous Version | Text Only | Print | Product List | Glossary On
Versions: 1 2 3 4 5 6 7 8 9 10 11 12 13 14 15 16 17 18 19 20 21 22 23 24 25 26 27 28 29 30 31 32
000
FTUS41 KPBZ 012300
TAFPIT
TAF
KPIT 012336Z 0200/0306 21007KT P6SM SCT035
      TEMPO 0208/0212 4SM BR BKN025
     FM021500 22008KT P6SM -SHRA BKN040
      TEMPO 0217/0221 3SM TSRA OVC035CB
     FM022300 24008KT P6SM BKN025=

USA.gov is the U.S. government's official web portal to all federal, state and local government web resources and services.